sensor_id;sensor_type;location;lat;lon;timestamp;pressure;altitude;pressure_sealevel;temperature;humidity
41312;BME280;27061;41.648;24.568;2023-04-26T00:02:19;84973.47;;;10.21;71.97
41312;BME280;27061;41.648;24.568;2023-04-26T00:04:53;84956.44;;;9.84;72.04
41312;BME280;27061;41.648;24.568;2023-04-26T00:07:28;84981.06;;;9.94;72.08
41312;BME280;27061;41.648;24.568;2023-04-26T00:09:56;84968.94;;;9.81;73.00
41312;BME280;27061;41.648;24.568;2023-04-26T00:12:23;84940.63;;;9.51;72.08
41312;BME280;27061;41.648;24.568;2023-04-26T00:14:53;84941.75;;;9.63;71.86
41312;BME280;27061;41.648;24.568;2023-04-26T00:17:22;84922.38;;;9.34;74.05
41312;BME280;27061;41.648;24.568;2023-04-26T00:19:49;84963.91;;;9.61;74.02
41312;BME280;27061;41.648;24.568;2023-04-26T00:22:16;84943.72;;;9.37;74.47
41312;BME280;27061;41.648;24.568;2023-04-26T00:24:43;84939.59;;;9.36;74.58
41312;BME280;27061;41.648;24.568;2023-04-26T00:27:11;84857.88;;;8.90;73.67
41312;BME280;27061;41.648;24.568;2023-04-26T00:29:38;84925.22;;;9.32;73.15
41312;BME280;27061;41.648;24.568;2023-04-26T00:32:05;84905.22;;;9.31;73.04
41312;BME280;27061;41.648;24.568;2023-04-26T00:34:34;84919.78;;;9.28;72.99
41312;BME280;27061;41.648;24.568;2023-04-26T00:37:01;84909.66;;;9.18;73.93
41312;BME280;27061;41.648;24.568;2023-04-26T00:39:29;84931.94;;;9.39;73.68
41312;BME280;27061;41.648;24.568;2023-04-26T00:41:56;84883.72;;;9.05;74.75
41312;BME280;27061;41.648;24.568;2023-04-26T00:44:27;84889.16;;;9.09;75.80
41312;BME280;27061;41.648;24.568;2023-04-26T00:46:54;84908.13;;;9.23;75.25
41312;BME280;27061;41.648;24.568;2023-04-26T00:49:23;84897.41;;;9.11;75.50
41312;BME280;27061;41.648;24.568;2023-04-26T00:51:51;84858.63;;;8.86;76.13
41312;BME280;27061;41.648;24.568;2023-04-26T00:54:20;84927.91;;;9.34;76.26
41312;BME280;27061;41.648;24.568;2023-04-26T00:56:47;84909.53;;;9.22;76.75
41312;BME280;27061;41.648;24.568;2023-04-26T00:59:19;84908.34;;;9.15;77.57
41312;BME280;27061;41.648;24.568;2023-04-26T01:01:46;84925.75;;;9.38;76.76
41312;BME280;27061;41.648;24.568;2023-04-26T01:04:15;84925.59;;;9.44;75.84
41312;BME280;27061;41.648;24.568;2023-04-26T01:06:43;84881.41;;;9.15;74.73
41312;BME280;27061;41.648;24.568;2023-04-26T01:09:10;84895.84;;;9.18;74.41
41312;BME280;27061;41.648;24.568;2023-04-26T01:11:41;84942.97;;;9.41;73.78
41312;BME280;27061;41.648;24.568;2023-04-26T01:14:09;84868.78;;;8.94;73.18
41312;BME280;27061;41.648;24.568;2023-04-26T01:16:37;84931.22;;;9.40;72.87
41312;BME280;27061;41.648;24.568;2023-04-26T01:19:11;84887.25;;;9.01;73.35
41312;BME280;27061;41.648;24.568;2023-04-26T01:21:39;84872.66;;;8.76;74.25
41312;BME280;27061;41.648;24.568;2023-04-26T01:24:12;84908.72;;;8.99;75.09
41312;BME280;27061;41.648;24.568;2023-04-26T01:26:40;84940.50;;;9.27;75.71
41312;BME280;27061;41.648;24.568;2023-04-26T01:29:15;84945.44;;;9.22;76.54
41312;BME280;27061;41.648;24.568;2023-04-26T01:31:43;84938.63;;;9.19;77.03
41312;BME280;27061;41.648;24.568;2023-04-26T01:34:10;84915.59;;;9.00;77.61
41312;BME280;27061;41.648;24.568;2023-04-26T01:36:37;84886.41;;;8.78;78.14
41312;BME280;27061;41.648;24.568;2023-04-26T01:39:04;84868.72;;;8.67;79.03
41312;BME280;27061;41.648;24.568;2023-04-26T01:41:32;84908.00;;;9.00;77.56
41312;BME280;27061;41.648;24.568;2023-04-26T01:43:59;84898.97;;;9.02;76.23
41312;BME280;27061;41.648;24.568;2023-04-26T01:46:27;84921.94;;;9.23;75.77
41312;BME280;27061;41.648;24.568;2023-04-26T01:48:54;84922.09;;;9.17;76.35
41312;BME280;27061;41.648;24.568;2023-04-26T01:51:21;84886.72;;;8.95;76.94
41312;BME280;27061;41.648;24.568;2023-04-26T01:53:49;84886.84;;;8.89;75.34
41312;BME280;27061;41.648;24.568;2023-04-26T01:56:16;84852.16;;;8.67;75.82
41312;BME280;27061;41.648;24.568;2023-04-26T01:58:44;84833.25;;;8.49;76.24
41312;BME280;27061;41.648;24.568;2023-04-26T02:01:11;84891.50;;;8.96;76.32
41312;BME280;27061;41.648;24.568;2023-04-26T02:03:38;84939.78;;;9.28;75.94
41312;BME280;27061;41.648;24.568;2023-04-26T02:06:05;84926.22;;;9.18;75.52
41312;BME280;27061;41.648;24.568;2023-04-26T02:08:33;84911.97;;;9.07;76.03
41312;BME280;27061;41.648;24.568;2023-04-26T02:11:00;84894.47;;;8.88;75.58
41312;BME280;27061;41.648;24.568;2023-04-26T02:13:27;84905.69;;;9.11;76.68
41312;BME280;27061;41.648;24.568;2023-04-26T02:15:54;84932.75;;;9.33;76.68
41312;BME280;27061;41.648;24.568;2023-04-26T02:18:21;84788.81;;;8.30;76.92
41312;BME280;27061;41.648;24.568;2023-04-26T02:20:49;84927.97;;;9.32;77.79
41312;BME280;27061;41.648;24.568;2023-04-26T02:23:16;84914.25;;;9.28;78.02
41312;BME280;27061;41.648;24.568;2023-04-26T02:25:47;84909.34;;;9.32;77.91
41312;BME280;27061;41.648;24.568;2023-04-26T02:28:15;84829.94;;;8.73;78.06
41312;BME280;27061;41.648;24.568;2023-04-26T02:30:43;84861.50;;;8.80;78.78
41312;BME280;27061;41.648;24.568;2023-04-26T02:33:10;84860.75;;;8.84;79.31
41312;BME280;27061;41.648;24.568;2023-04-26T02:35:40;84868.91;;;8.90;78.59
41312;BME280;27061;41.648;24.568;2023-04-26T02:38:07;84859.31;;;8.87;77.69
41312;BME280;27061;41.648;24.568;2023-04-26T02:40:34;84863.88;;;8.98;77.45
41312;BME280;27061;41.648;24.568;2023-04-26T02:43:01;84893.16;;;9.14;77.01
41312;BME280;27061;41.648;24.568;2023-04-26T02:45:29;84833.63;;;8.63;77.26
41312;BME280;27061;41.648;24.568;2023-04-26T02:47:57;84906.69;;;9.26;77.44
41312;BME280;27061;41.648;24.568;2023-04-26T02:50:24;84826.50;;;8.72;77.17
41312;BME280;27061;41.648;24.568;2023-04-26T02:52:51;84876.75;;;9.08;75.59
41312;BME280;27061;41.648;24.568;2023-04-26T02:55:18;84879.75;;;8.98;74.54
41312;BME280;27061;41.648;24.568;2023-04-26T02:57:45;84847.78;;;8.78;73.85
41312;BME280;27061;41.648;24.568;2023-04-26T03:00:13;84809.06;;;8.51;71.54
41312;BME280;27061;41.648;24.568;2023-04-26T03:02:40;84726.53;;;7.79;70.86
41312;BME280;27061;41.648;24.568;2023-04-26T03:05:08;84920.47;;;9.28;69.17
41312;BME280;27061;41.648;24.568;2023-04-26T03:07:35;84921.78;;;9.31;69.25
41312;BME280;27061;41.648;24.568;2023-04-26T03:10:05;84826.25;;;8.54;69.18
41312;BME280;27061;41.648;24.568;2023-04-26T03:12:32;84906.97;;;9.14;68.46
41312;BME280;27061;41.648;24.568;2023-04-26T03:15:01;84906.53;;;9.03;68.88
41312;BME280;27061;41.648;24.568;2023-04-26T03:17:30;84888.16;;;8.92;68.89
41312;BME280;27061;41.648;24.568;2023-04-26T03:19:57;84927.03;;;9.12;69.05
41312;BME280;27061;41.648;24.568;2023-04-26T03:22:27;84923.91;;;8.98;69.78
41312;BME280;27061;41.648;24.568;2023-04-26T03:24:54;84910.47;;;8.81;69.46
41312;BME280;27061;41.648;24.568;2023-04-26T03:27:24;84841.16;;;8.34;69.30
41312;BME280;27061;41.648;24.568;2023-04-26T03:29:52;84922.44;;;9.01;68.11
41312;BME280;27061;41.648;24.568;2023-04-26T03:32:19;84895.66;;;8.64;68.75
41312;BME280;27061;41.648;24.568;2023-04-26T03:34:46;84918.97;;;8.71;70.83
41312;BME280;27061;41.648;24.568;2023-04-26T03:37:14;84915.19;;;8.54;72.01
41312;BME280;27061;41.648;24.568;2023-04-26T03:39:44;84922.09;;;8.53;72.62
41312;BME280;27061;41.648;24.568;2023-04-26T03:42:12;84903.13;;;8.37;72.94
41312;BME280;27061;41.648;24.568;2023-04-26T03:44:48;84906.06;;;8.27;72.66
41312;BME280;27061;41.648;24.568;2023-04-26T03:47:15;84910.81;;;8.32;72.48
41312;BME280;27061;41.648;24.568;2023-04-26T03:49:42;84910.13;;;8.30;73.10
41312;BME280;27061;41.648;24.568;2023-04-26T03:52:10;84904.78;;;8.22;73.48
41312;BME280;27061;41.648;24.568;2023-04-26T03:54:37;84940.97;;;8.40;74.49
41312;BME280;27061;41.648;24.568;2023-04-26T03:57:04;84911.66;;;8.23;73.44
41312;BME280;27061;41.648;24.568;2023-04-26T03:59:31;84951.31;;;8.40;73.27
41312;BME280;27061;41.648;24.568;2023-04-26T04:01:58;84900.81;;;8.15;72.89
41312;BME280;27061;41.648;24.568;2023-04-26T04:04:25;84932.16;;;8.34;73.94
41312;BME280;27061;41.648;24.568;2023-04-26T04:06:53;84934.31;;;8.27;74.43
41312;BME280;27061;41.648;24.568;2023-04-26T04:09:20;84928.97;;;8.19;75.34
41312;BME280;27061;41.648;24.568;2023-04-26T04:11:47;84853.53;;;7.65;75.53
41312;BME280;27061;41.648;24.568;2023-04-26T04:14:15;84866.28;;;7.83;74.58
41312;BME280;27061;41.648;24.568;2023-04-26T04:16:45;84845.78;;;7.73;74.07
41312;BME280;27061;41.648;24.568;2023-04-26T04:19:12;84908.91;;;8.23;73.38
41312;BME280;27061;41.648;24.568;2023-04-26T04:21:40;84896.56;;;8.20;73.69
41312;BME280;27061;41.648;24.568;2023-04-26T04:24:08;84918.41;;;8.32;74.38
41312;BME280;27061;41.648;24.568;2023-04-26T04:26:36;84919.63;;;8.39;74.85
41312;BME280;27061;41.648;24.568;2023-04-26T04:29:03;84870.75;;;8.00;75.21
41312;BME280;27061;41.648;24.568;2023-04-26T04:31:36;84876.88;;;8.05;75.77
41312;BME280;27061;41.648;24.568;2023-04-26T04:34:07;84911.47;;;8.35;76.84
41312;BME280;27061;41.648;24.568;2023-04-26T04:36:36;84908.50;;;8.45;77.67
41312;BME280;27061;41.648;24.568;2023-04-26T04:39:04;84898.88;;;8.42;77.24
41312;BME280;27061;41.648;24.568;2023-04-26T04:41:38;84835.13;;;7.90;77.14
41312;BME280;27061;41.648;24.568;2023-04-26T04:44:06;84897.69;;;8.33;78.29
41312;BME280;27061;41.648;24.568;2023-04-26T04:46:33;84903.69;;;8.43;78.59
41312;BME280;27061;41.648;24.568;2023-04-26T04:49:00;84878.59;;;8.23;78.68
41312;BME280;27061;41.648;24.568;2023-04-26T04:51:30;84820.63;;;7.92;78.49
41312;BME280;27061;41.648;24.568;2023-04-26T04:53:57;84893.44;;;8.38;79.07
41312;BME280;27061;41.648;24.568;2023-04-26T04:56:24;84916.44;;;8.59;80.14
41312;BME280;27061;41.648;24.568;2023-04-26T04:58:51;84872.91;;;8.31;80.65
41312;BME280;27061;41.648;24.568;2023-04-26T05:01:20;84911.78;;;8.52;80.84
41312;BME280;27061;41.648;24.568;2023-04-26T05:03:51;84917.28;;;8.54;82.62
41312;BME280;27061;41.648;24.568;2023-04-26T05:06:19;84925.47;;;8.58;84.12
41312;BME280;27061;41.648;24.568;2023-04-26T05:08:46;84897.41;;;8.47;87.72
41312;BME280;27061;41.648;24.568;2023-04-26T05:11:14;84872.88;;;8.33;86.87
41312;BME280;27061;41.648;24.568;2023-04-26T05:13:41;84845.66;;;8.15;86.72
41312;BME280;27061;41.648;24.568;2023-04-26T05:16:09;84902.75;;;8.55;88.36
41312;BME280;27061;41.648;24.568;2023-04-26T05:18:36;84886.22;;;8.55;87.52
41312;BME280;27061;41.648;24.568;2023-04-26T05:21:04;84911.19;;;8.80;88.23
41312;BME280;27061;41.648;24.568;2023-04-26T05:23:31;84904.09;;;8.89;87.72
41312;BME280;27061;41.648;24.568;2023-04-26T05:26:04;84906.69;;;8.97;87.15
41312;BME280;27061;41.648;24.568;2023-04-26T05:28:54;84836.69;;;8.49;86.31
41312;BME280;27061;41.648;24.568;2023-04-26T05:31:50;84919.53;;;9.09;87.56
41312;BME280;27061;41.648;24.568;2023-04-26T05:34:44;84888.44;;;9.10;86.72
41312;BME280;27061;41.648;24.568;2023-04-26T05:37:15;84903.38;;;9.22;89.85
41312;BME280;27061;41.648;24.568;2023-04-26T05:39:43;84860.19;;;9.08;88.07
41312;BME280;27061;41.648;24.568;2023-04-26T05:42:10;84885.25;;;9.29;88.67
41312;BME280;27061;41.648;24.568;2023-04-26T05:44:38;84895.31;;;9.40;87.75
41312;BME280;27061;41.648;24.568;2023-04-26T05:47:06;84766.31;;;8.50;87.22
41312;BME280;27061;41.648;24.568;2023-04-26T05:49:34;84907.19;;;9.64;86.14
41312;BME280;27061;41.648;24.568;2023-04-26T05:52:01;84832.38;;;9.16;86.07
41312;BME280;27061;41.648;24.568;2023-04-26T05:54:29;84824.19;;;9.12;85.91
41312;BME280;27061;41.648;24.568;2023-04-26T05:56:56;84866.56;;;9.58;85.15
41312;BME280;27061;41.648;24.568;2023-04-26T05:59:26;84914.50;;;10.02;84.13
41312;BME280;27061;41.648;24.568;2023-04-26T06:01:54;84913.91;;;9.98;82.83
41312;BME280;27061;41.648;24.568;2023-04-26T06:04:21;84870.25;;;9.75;82.54
41312;BME280;27061;41.648;24.568;2023-04-26T06:07:00;84851.81;;;9.68;82.33
41312;BME280;27061;41.648;24.568;2023-04-26T06:09:30;84918.31;;;10.15;82.88
41312;BME280;27061;41.648;24.568;2023-04-26T06:11:57;84884.09;;;10.02;81.76
41312;BME280;27061;41.648;24.568;2023-04-26T06:14:24;84906.88;;;10.30;82.33
41312;BME280;27061;41.648;24.568;2023-04-26T06:17:02;84910.84;;;10.37;81.80
41312;BME280;27061;41.648;24.568;2023-04-26T06:19:30;84866.44;;;10.16;81.44
41312;BME280;27061;41.648;24.568;2023-04-26T06:21:57;84897.88;;;10.56;80.02
41312;BME280;27061;41.648;24.568;2023-04-26T06:24:24;84897.69;;;10.62;80.60
41312;BME280;27061;41.648;24.568;2023-04-26T06:26:51;84803.84;;;10.04;82.36
41312;BME280;27061;41.648;24.568;2023-04-26T06:29:19;84820.97;;;10.36;82.90
41312;BME280;27061;41.648;24.568;2023-04-26T06:31:47;84891.72;;;11.01;84.39
41312;BME280;27061;41.648;24.568;2023-04-26T06:34:14;84897.81;;;11.06;83.64
41312;BME280;27061;41.648;24.568;2023-04-26T06:36:41;84859.66;;;10.85;82.98
41312;BME280;27061;41.648;24.568;2023-04-26T06:39:10;84892.59;;;11.18;82.82
41312;BME280;27061;41.648;24.568;2023-04-26T06:41:39;84872.72;;;11.12;84.07
41312;BME280;27061;41.648;24.568;2023-04-26T06:44:08;84865.16;;;11.10;82.41
41312;BME280;27061;41.648;24.568;2023-04-26T06:46:40;84840.81;;;11.13;82.75
41312;BME280;27061;41.648;24.568;2023-04-26T06:49:08;84889.03;;;11.65;82.63
41312;BME280;27061;41.648;24.568;2023-04-26T06:51:37;84850.88;;;11.45;79.66
41312;BME280;27061;41.648;24.568;2023-04-26T06:54:04;84888.50;;;11.84;79.45
41312;BME280;27061;41.648;24.568;2023-04-26T06:56:31;84887.56;;;11.91;78.82
41312;BME280;27061;41.648;24.568;2023-04-26T06:58:59;84886.59;;;11.99;77.50
41312;BME280;27061;41.648;24.568;2023-04-26T07:01:31;84861.50;;;11.82;75.11
41312;BME280;27061;41.648;24.568;2023-04-26T07:04:03;84849.88;;;11.78;79.27
41312;BME280;27061;41.648;24.568;2023-04-26T07:06:30;84853.66;;;11.89;77.99
41312;BME280;27061;41.648;24.568;2023-04-26T07:08:59;84816.22;;;11.67;77.50
41312;BME280;27061;41.648;24.568;2023-04-26T07:11:27;84840.00;;;12.03;76.95
41312;BME280;27061;41.648;24.568;2023-04-26T07:13:54;84879.78;;;12.37;77.29
41312;BME280;27061;41.648;24.568;2023-04-26T07:16:22;84854.47;;;12.27;76.46
41312;BME280;27061;41.648;24.568;2023-04-26T07:18:50;84842.53;;;12.30;76.62
41312;BME280;27061;41.648;24.568;2023-04-26T07:21:18;84878.22;;;12.61;76.39
41312;BME280;27061;41.648;24.568;2023-04-26T07:23:45;84862.41;;;12.58;76.55
41312;BME280;27061;41.648;24.568;2023-04-26T07:26:12;84859.69;;;12.56;66.63
41312;BME280;27061;41.648;24.568;2023-04-26T07:28:39;84837.16;;;12.45;68.10
41312;BME280;27061;41.648;24.568;2023-04-26T07:31:06;84837.09;;;12.47;68.20
41312;BME280;27061;41.648;24.568;2023-04-26T07:33:36;84881.47;;;12.68;68.45
41312;BME280;27061;41.648;24.568;2023-04-26T07:36:04;84831.97;;;12.35;68.28
41312;BME280;27061;41.648;24.568;2023-04-26T07:38:31;84898.22;;;12.84;70.86
41312;BME280;27061;41.648;24.568;2023-04-26T07:40:58;84898.78;;;12.89;70.68
41312;BME280;27061;41.648;24.568;2023-04-26T07:43:27;84900.88;;;12.89;72.08
41312;BME280;27061;41.648;24.568;2023-04-26T07:45:54;84897.63;;;12.82;70.31
41312;BME280;27061;41.648;24.568;2023-04-26T07:48:21;84840.75;;;12.41;69.99
41312;BME280;27061;41.648;24.568;2023-04-26T07:50:48;84848.66;;;12.54;67.26
41312;BME280;27061;41.648;24.568;2023-04-26T07:53:16;84868.25;;;12.50;68.42
41312;BME280;27061;41.648;24.568;2023-04-26T07:55:43;84910.94;;;12.98;64.33
41312;BME280;27061;41.648;24.568;2023-04-26T07:58:10;84837.97;;;12.41;62.23
41312;BME280;27061;41.648;24.568;2023-04-26T08:00:40;84843.38;;;12.27;66.11
41312;BME280;27061;41.648;24.568;2023-04-26T08:03:07;84894.31;;;12.77;67.31
41312;BME280;27061;41.648;24.568;2023-04-26T08:05:35;84878.81;;;12.45;68.12
41312;BME280;27061;41.648;24.568;2023-04-26T08:08:03;84848.53;;;12.18;67.68
41312;BME280;27061;41.648;24.568;2023-04-26T08:10:30;84841.47;;;12.00;68.13
41312;BME280;27061;41.648;24.568;2023-04-26T08:12:57;84903.69;;;12.68;67.82
41312;BME280;27061;41.648;24.568;2023-04-26T08:15:29;84856.41;;;12.30;67.33
41312;BME280;27061;41.648;24.568;2023-04-26T08:17:56;84864.88;;;12.26;67.99
41312;BME280;27061;41.648;24.568;2023-04-26T08:20:23;84862.56;;;12.33;65.09
41312;BME280;27061;41.648;24.568;2023-04-26T08:22:57;84893.13;;;12.52;60.66
41312;BME280;27061;41.648;24.568;2023-04-26T08:25:24;84865.97;;;12.15;62.89
41312;BME280;27061;41.648;24.568;2023-04-26T08:27:52;84839.72;;;11.91;63.21
41312;BME280;27061;41.648;24.568;2023-04-26T08:30:19;84799.41;;;11.52;65.03
41312;BME280;27061;41.648;24.568;2023-04-26T08:32:46;84924.50;;;12.27;66.84
41312;BME280;27061;41.648;24.568;2023-04-26T08:35:13;84892.50;;;12.09;67.58
41312;BME280;27061;41.648;24.568;2023-04-26T08:37:40;84933.34;;;11.90;64.55
41312;BME280;27061;41.648;24.568;2023-04-26T08:40:08;84895.72;;;11.52;63.31
41312;BME280;27061;41.648;24.568;2023-04-26T08:42:40;84969.03;;;11.80;64.81
41312;BME280;27061;41.648;24.568;2023-04-26T08:45:10;84856.69;;;10.91;62.78
41312;BME280;27061;41.648;24.568;2023-04-26T08:50:09;84911.63;;;10.83;65.45
41312;BME280;27061;41.648;24.568;2023-04-26T08:52:38;84977.97;;;11.12;62.81
41312;BME280;27061;41.648;24.568;2023-04-26T08:55:08;84948.44;;;10.79;61.92
41312;BME280;27061;41.648;24.568;2023-04-26T08:57:35;84908.94;;;10.56;64.45
41312;BME280;27061;41.648;24.568;2023-04-26T09:00:04;84903.50;;;10.52;71.14
41312;BME280;27061;41.648;24.568;2023-04-26T09:02:33;84920.09;;;10.52;73.73
41312;BME280;27061;41.648;24.568;2023-04-26T09:05:00;84925.25;;;10.66;72.41
41312;BME280;27061;41.648;24.568;2023-04-26T09:07:37;84941.63;;;10.74;72.92
41312;BME280;27061;41.648;24.568;2023-04-26T09:10:05;84893.91;;;10.49;70.74
41312;BME280;27061;41.648;24.568;2023-04-26T09:12:33;84872.31;;;10.28;73.50
41312;BME280;27061;41.648;24.568;2023-04-26T09:15:01;84905.94;;;10.64;75.04
41312;BME280;27061;41.648;24.568;2023-04-26T09:17:31;84945.88;;;10.96;66.88
41312;BME280;27061;41.648;24.568;2023-04-26T09:20:26;84941.13;;;10.92;71.96
41312;BME280;27061;41.648;24.568;2023-04-26T09:23:03;84895.25;;;10.75;72.18
41312;BME280;27061;41.648;24.568;2023-04-26T09:25:31;84874.81;;;10.63;70.68
41312;BME280;27061;41.648;24.568;2023-04-26T09:27:59;84880.78;;;10.72;67.80
41312;BME280;27061;41.648;24.568;2023-04-26T09:30:27;84939.13;;;11.14;69.89
41312;BME280;27061;41.648;24.568;2023-04-26T09:32:55;84925.72;;;11.22;71.49
41312;BME280;27061;41.648;24.568;2023-04-26T09:35:41;84917.34;;;11.24;73.12
41312;BME280;27061;41.648;24.568;2023-04-26T09:38:17;84843.53;;;10.69;77.76
41312;BME280;27061;41.648;24.568;2023-04-26T09:40:47;84863.72;;;10.88;79.64
41312;BME280;27061;41.648;24.568;2023-04-26T09:48:26;84903.31;;;11.53;81.42
41312;BME280;27061;41.648;24.568;2023-04-26T09:50:57;84909.31;;;11.60;79.47
41312;BME280;27061;41.648;24.568;2023-04-26T09:53:31;84902.84;;;11.67;79.71
41312;BME280;27061;41.648;24.568;2023-04-26T09:56:17;84906.50;;;11.62;75.97
41312;BME280;27061;41.648;24.568;2023-04-26T10:01:14;84849.84;;;11.34;75.64
41312;BME280;27061;41.648;24.568;2023-04-26T10:03:42;84867.28;;;11.53;72.84
41312;BME280;27061;41.648;24.568;2023-04-26T10:06:16;84858.09;;;11.36;77.02
41312;BME280;27061;41.648;24.568;2023-04-26T10:08:44;84883.38;;;11.69;78.01
41312;BME280;27061;41.648;24.568;2023-04-26T10:11:11;84878.38;;;11.74;80.36
41312;BME280;27061;41.648;24.568;2023-04-26T10:13:40;84898.47;;;11.74;82.08
41312;BME280;27061;41.648;24.568;2023-04-26T10:16:08;84884.25;;;11.64;80.08
41312;BME280;27061;41.648;24.568;2023-04-26T10:18:40;84892.34;;;11.93;78.67
41312;BME280;27061;41.648;24.568;2023-04-26T10:21:15;84811.50;;;11.43;75.87
41312;BME280;27061;41.648;24.568;2023-04-26T10:23:46;84837.41;;;11.77;75.89
41312;BME280;27061;41.648;24.568;2023-04-26T10:26:46;84879.50;;;12.04;79.46
41312;BME280;27061;41.648;24.568;2023-04-26T10:29:21;84879.97;;;12.10;80.45
41312;BME280;27061;41.648;24.568;2023-04-26T10:32:07;84839.13;;;11.88;82.36
41312;BME280;27061;41.648;24.568;2023-04-26T10:34:35;84855.41;;;11.98;82.65
41312;BME280;27061;41.648;24.568;2023-04-26T10:37:10;84873.34;;;12.22;82.83
41312;BME280;27061;41.648;24.568;2023-04-26T10:39:39;84647.59;;;10.51;81.26
41312;BME280;27061;41.648;24.568;2023-04-26T10:42:24;84849.34;;;12.15;79.74
41312;BME280;27061;41.648;24.568;2023-04-26T10:44:56;84872.94;;;12.34;79.15
41312;BME280;27061;41.648;24.568;2023-04-26T10:47:32;84796.31;;;11.83;76.94
41312;BME280;27061;41.648;24.568;2023-04-26T10:50:08;84872.94;;;12.34;76.49
41312;BME280;27061;41.648;24.568;2023-04-26T10:52:37;84872.72;;;12.40;76.20
41312;BME280;27061;41.648;24.568;2023-04-26T10:55:40;84883.53;;;12.49;76.13
41312;BME280;27061;41.648;24.568;2023-04-26T10:58:27;84888.56;;;12.44;75.41
41312;BME280;27061;41.648;24.568;2023-04-26T11:01:15;84874.41;;;12.31;75.31
41312;BME280;27061;41.648;24.568;2023-04-26T11:09:47;84812.06;;;11.89;73.81
41312;BME280;27061;41.648;24.568;2023-04-26T11:12:15;84834.31;;;12.07;74.04
41312;BME280;27061;41.648;24.568;2023-04-26T11:14:44;84820.25;;;11.93;72.84
41312;BME280;27061;41.648;24.568;2023-04-26T11:17:11;84872.34;;;12.51;73.22
41312;BME280;27061;41.648;24.568;2023-04-26T11:19:45;84827.25;;;12.10;74.02
41312;BME280;27061;41.648;24.568;2023-04-26T11:22:13;84830.94;;;12.05;73.95
41312;BME280;27061;41.648;24.568;2023-04-26T11:24:41;84839.97;;;12.24;74.49
41312;BME280;27061;41.648;24.568;2023-04-26T11:27:09;84812.00;;;11.91;74.07
41312;BME280;27061;41.648;24.568;2023-04-26T11:29:37;84831.69;;;12.03;73.60
41312;BME280;27061;41.648;24.568;2023-04-26T11:32:05;84847.91;;;12.16;72.82
41312;BME280;27061;41.648;24.568;2023-04-26T11:34:36;84833.09;;;12.02;73.06
41312;BME280;27061;41.648;24.568;2023-04-26T11:37:05;84855.28;;;12.23;73.23
41312;BME280;27061;41.648;24.568;2023-04-26T11:39:36;84786.19;;;11.76;73.75
41312;BME280;27061;41.648;24.568;2023-04-26T11:44:33;84868.41;;;12.25;73.96
41312;BME280;27061;41.648;24.568;2023-04-26T11:47:01;84834.31;;;11.87;71.60
41312;BME280;27061;41.648;24.568;2023-04-26T11:49:34;84874.56;;;12.06;70.80
41312;BME280;27061;41.648;24.568;2023-04-26T11:52:03;84857.72;;;11.92;69.90
41312;BME280;27061;41.648;24.568;2023-04-26T11:54:32;84835.28;;;11.56;69.61
41312;BME280;27061;41.648;24.568;2023-04-26T11:57:00;84879.16;;;11.93;64.80
41312;BME280;27061;41.648;24.568;2023-04-26T11:59:29;84854.28;;;11.25;65.37
41312;BME280;27061;41.648;24.568;2023-04-26T12:01:57;84864.56;;;11.28;66.63
41312;BME280;27061;41.648;24.568;2023-04-26T12:04:29;84876.16;;;11.35;66.63
41312;BME280;27061;41.648;24.568;2023-04-26T12:07:02;84792.88;;;10.50;67.44
41312;BME280;27061;41.648;24.568;2023-04-26T12:09:30;84862.47;;;10.83;67.95
41312;BME280;27061;41.648;24.568;2023-04-26T12:12:01;84832.38;;;10.48;67.39
41312;BME280;27061;41.648;24.568;2023-04-26T12:14:34;84879.22;;;10.79;67.89
41312;BME280;27061;41.648;24.568;2023-04-26T12:17:05;84881.75;;;10.87;66.01
41312;BME280;27061;41.648;24.568;2023-04-26T12:19:37;84875.84;;;10.52;66.44
41312;BME280;27061;41.648;24.568;2023-04-26T12:22:05;84892.66;;;10.44;67.22
41312;BME280;27061;41.648;24.568;2023-04-26T12:24:33;84821.03;;;9.28;69.34
41312;BME280;27061;41.648;24.568;2023-04-26T12:27:03;84858.34;;;9.83;69.75
41312;BME280;27061;41.648;24.568;2023-04-26T12:29:33;84869.69;;;9.98;68.53
41312;BME280;27061;41.648;24.568;2023-04-26T12:32:01;84832.72;;;9.58;69.04
41312;BME280;27061;41.648;24.568;2023-04-26T12:34:29;84902.31;;;9.93;70.40
41312;BME280;27061;41.648;24.568;2023-04-26T12:36:56;84829.47;;;9.22;71.10
41312;BME280;27061;41.648;24.568;2023-04-26T12:39:24;84904.56;;;9.58;72.01
41312;BME280;27061;41.648;24.568;2023-04-26T12:41:51;84819.31;;;8.86;71.77
41312;BME280;27061;41.648;24.568;2023-04-26T12:44:18;84908.50;;;9.38;72.62
41312;BME280;27061;41.648;24.568;2023-04-26T12:46:48;84854.03;;;9.05;75.37
41312;BME280;27061;41.648;24.568;2023-04-26T12:49:15;84874.03;;;9.06;76.67
41312;BME280;27061;41.648;24.568;2023-04-26T12:51:45;84888.13;;;9.23;77.04
41312;BME280;27061;41.648;24.568;2023-04-26T12:54:13;84870.22;;;8.91;76.70
41312;BME280;27061;41.648;24.568;2023-04-26T12:56:40;84892.97;;;9.22;75.63
41312;BME280;27061;41.648;24.568;2023-04-26T12:59:09;84868.91;;;8.90;75.13
41312;BME280;27061;41.648;24.568;2023-04-26T13:01:37;84904.03;;;9.22;74.96
41312;BME280;27061;41.648;24.568;2023-04-26T13:04:04;84874.13;;;9.02;76.36
41312;BME280;27061;41.648;24.568;2023-04-26T13:06:32;84909.34;;;9.32;76.68
41312;BME280;27061;41.648;24.568;2023-04-26T13:09:00;84858.84;;;8.76;78.21
41312;BME280;27061;41.648;24.568;2023-04-26T13:11:27;84919.78;;;9.28;77.47
41312;BME280;27061;41.648;24.568;2023-04-26T13:13:54;84904.84;;;9.16;76.02
41312;BME280;27061;41.648;24.568;2023-04-26T13:16:22;84925.59;;;9.44;74.55
41312;BME280;27061;41.648;24.568;2023-04-26T13:18:49;84749.31;;;8.08;74.79
41312;BME280;27061;41.648;24.568;2023-04-26T13:21:17;84929.28;;;9.35;71.38
41312;BME280;27061;41.648;24.568;2023-04-26T13:23:44;84753.56;;;8.03;71.73
41312;BME280;27061;41.648;24.568;2023-04-26T13:26:12;84936.06;;;9.11;71.82